createdAt,value
2022-09-28T00:07:42.113Z,954.05
2022-09-28T00:17:42.267Z,953.94
2022-09-28T00:27:42.480Z,953.72
2022-09-28T00:37:42.653Z,953.52
2022-09-28T00:47:42.888Z,953.26
2022-09-28T00:57:43.069Z,953.12
2022-09-28T01:07:43.272Z,952.82
2022-09-28T01:17:43.431Z,952.66
2022-09-28T01:27:43.638Z,952.38
2022-09-28T01:37:43.807Z,952.16
2022-09-28T01:47:44.032Z,952.06
2022-09-28T01:57:44.142Z,951.97
2022-09-28T02:07:45.446Z,951.80
2022-09-28T02:17:44.478Z,951.69
2022-09-28T02:27:44.665Z,951.57
2022-09-28T02:37:44.811Z,951.30
2022-09-28T02:47:45.009Z,951.25
2022-09-28T02:57:45.274Z,951.14
2022-09-28T03:07:45.348Z,950.95
2022-09-28T03:17:45.475Z,950.89
2022-09-28T03:27:45.654Z,950.86
2022-09-28T03:37:45.793Z,950.83
2022-09-28T03:47:46.002Z,950.73
2022-09-28T03:57:46.151Z,950.56
2022-09-28T04:07:46.623Z,950.49
2022-09-28T04:17:46.424Z,950.58
2022-09-28T04:27:46.603Z,950.51
2022-09-28T04:37:46.744Z,950.59
2022-09-28T04:47:46.897Z,950.47
2022-09-28T04:57:47.052Z,950.58
2022-09-28T05:07:47.259Z,950.90
2022-09-28T05:17:47.626Z,951.16
2022-09-28T05:27:47.595Z,951.19
2022-09-28T05:37:47.768Z,951.20
2022-09-28T05:47:47.989Z,951.33
2022-09-28T05:57:48.159Z,951.43
2022-09-28T06:07:48.377Z,951.35
2022-09-28T06:17:48.531Z,951.53
2022-09-28T06:27:49.009Z,951.67
2022-09-28T06:37:48.925Z,951.58
2022-09-28T06:47:49.029Z,951.69
2022-09-28T06:57:49.189Z,951.84
2022-09-28T07:07:49.400Z,951.95
2022-09-28T07:18:00.102Z,952.22
2022-09-28T07:27:50.769Z,952.43
2022-09-28T07:37:49.954Z,952.41
2022-09-28T07:47:50.179Z,952.68
2022-09-28T07:57:50.333Z,952.78
2022-09-28T08:07:50.535Z,952.92
2022-09-28T08:17:50.617Z,952.92
2022-09-28T08:27:50.824Z,952.90
2022-09-28T08:37:54.711Z,952.98
2022-09-28T08:47:51.196Z,952.95
2022-09-28T08:57:51.331Z,953.20
2022-09-28T09:07:51.510Z,953.27
2022-09-28T09:17:51.638Z,953.38
2022-09-28T09:27:51.820Z,953.41
2022-09-28T09:37:55.286Z,953.55
2022-09-28T09:47:53.188Z,953.65
2022-09-28T09:57:52.339Z,953.72
2022-09-28T10:07:52.546Z,953.73
2022-09-28T10:17:52.697Z,953.68
2022-09-28T10:27:52.876Z,953.46
2022-09-28T10:37:53.019Z,953.63
2022-09-28T10:47:53.230Z,953.62
2022-09-28T10:57:53.351Z,953.52
2022-09-28T11:07:53.535Z,953.60
2022-09-28T11:17:53.674Z,953.58
2022-09-28T11:27:53.906Z,953.67
2022-09-28T11:37:54.057Z,953.58
2022-09-28T11:47:54.252Z,953.46
2022-09-28T11:57:54.387Z,953.41
2022-09-28T12:07:54.604Z,953.51
2022-09-28T12:17:54.809Z,953.50
2022-09-28T12:27:54.871Z,953.51
2022-09-28T12:37:55.252Z,953.41
2022-09-28T12:47:55.251Z,953.45
2022-09-28T12:57:55.398Z,953.46
2022-09-28T13:07:55.803Z,953.51
2022-09-28T13:17:55.753Z,953.42
2022-09-28T13:27:56.052Z,953.42
2022-09-28T13:37:56.306Z,953.43
2022-09-28T13:47:56.279Z,953.47
2022-09-28T13:57:56.565Z,953.45
2022-09-28T14:07:57.335Z,953.65
2022-09-28T14:17:57.114Z,953.76
2022-09-28T14:27:57.115Z,953.80
2022-09-28T14:37:57.184Z,953.72
2022-09-28T14:47:57.671Z,953.81
2022-09-28T14:57:57.479Z,953.81
2022-09-28T15:07:57.920Z,953.81
2022-09-28T15:17:58.171Z,953.77
2022-09-28T15:27:58.040Z,953.78
2022-09-28T15:37:58.418Z,953.77
2022-09-28T15:47:58.416Z,953.85
2022-09-28T15:57:58.475Z,953.94
2022-09-28T16:07:58.721Z,953.93
2022-09-28T16:17:58.911Z,953.98
2022-09-28T16:27:58.867Z,953.92
2022-09-28T16:37:59.027Z,954.07
2022-09-28T16:47:59.221Z,954.06
2022-09-28T16:58:00.379Z,954.25
2022-09-28T17:07:59.612Z,954.23
2022-09-28T17:17:59.785Z,954.24
2022-09-28T17:28:00.004Z,954.37
2022-09-28T17:38:00.184Z,954.45
2022-09-28T17:48:00.402Z,954.55
2022-09-28T17:58:00.554Z,954.58
2022-09-28T18:08:01.073Z,954.60
2022-09-28T18:18:01.146Z,954.86
2022-09-28T18:28:01.400Z,954.92
2022-09-28T18:38:01.223Z,954.98
2022-09-28T18:48:01.445Z,955.19
2022-09-28T18:58:01.614Z,955.27
2022-09-28T19:08:01.853Z,955.45
2022-09-28T19:18:02.035Z,955.41
2022-09-28T19:28:02.233Z,955.44
2022-09-28T19:38:02.418Z,955.47
2022-09-28T19:48:02.643Z,955.56
2022-09-28T19:58:02.812Z,955.65
2022-09-28T20:18:03.202Z,955.74
2022-09-28T20:28:03.425Z,955.78
2022-09-28T20:38:03.640Z,955.95
2022-09-28T20:48:03.844Z,955.98
2022-09-28T20:58:04.246Z,956.04
2022-09-28T21:08:04.249Z,955.97
2022-09-28T21:18:04.415Z,955.93
2022-09-28T21:28:04.617Z,955.84
2022-09-28T21:38:04.791Z,955.87
2022-09-28T21:48:05.020Z,955.85
2022-09-28T21:58:05.195Z,955.82
2022-09-28T22:08:05.428Z,955.80
2022-09-28T22:18:05.599Z,955.84
2022-09-28T22:28:05.843Z,955.84
2022-09-28T22:38:06.101Z,955.86
2022-09-28T22:48:06.209Z,955.84
2022-09-28T22:58:06.392Z,955.78
2022-09-28T23:08:06.606Z,955.77
2022-09-28T23:18:06.773Z,955.85
2022-09-28T23:28:07.007Z,955.79
2022-09-28T23:38:07.203Z,955.77
2022-09-28T23:48:07.433Z,955.75
2022-09-28T23:58:07.628Z,955.65
